メインページ
METAR-TAF:

METAR-TAF

空港 :

テヘラン, イラン

メヘラーバード国際空港

緯度: 35-41N, 経度: 051-21E, 海抜: 1204m

現時点の気象観測

当レポートは36分前の04:30(UTC)に作成
の風 4kt
気温 16°C
湿度 25%
気圧 1020 hPa
視程10km以上
1,500メートル以下は雲なし、積乱雲なし

METAR: OIII 210430Z 19004KT CAVOK 16/M04 Q1019 A3011 NOSIG

時間: 08:36 (05:06 UTC)

予報

当レポートは5時間26分前の23:40(UTC)に作成
予報は21日の 00時(UTC)から 22日の 06時(UTC)まで有効
北西の風 8kt
視程10km以上
1,500メートル以下は雲なし、積乱雲なし
21日の 07時(UTC)から 21日の 18時(UTC)まで一時的に
の風 10kt

TAF: OIII 202340Z 2100/2206 32004MPS CAVOK TEMPO 2107/2118 17005MPS

4,000以上の空港の気象観測と天気予報(METAR報とTAF報)

利用可能な観測所は地図上に黄色い丸と赤い丸で示す。

丸の上にカーソルを重ねると観測所名を参照できる。

次にクリックすると気象観測と天気予報を参照できる。

マップの切り替え:黒色「×」印の緑ボタンをクリックして拡大、「-」印の緑ボタンをクリックして縮小、緑色の三角印をクリックして隣りの地図に切り替え


METAR-TAF: